Impacts TAF Board
For situational awareness. Not to be used for flight planning purposes.
IDs:

KSTL - St Louis/Lambert Int, MO, US

Issued at 0520 UTC 23 Oct 2018
Updated at 0804 UTC 23 Oct 2018
Potential Impact None Slight Moderate High
Time<<24/09Z 24/10Z 24/11Z 24/12Z 24/13Z 24/14Z 24/15Z 24/16Z 24/17Z 24/18Z 24/19Z 24/20Z 24/21Z
Type PRVL PRVL PRVL
VIS >6 >6 >6
CIG -- -- --
Cover SKC SKC SKC
FltCat VFR VFR VFR
WX -- -- --
WDir 40 40 40
WSpd 4 4 4
WGst -- -- --
Raw TAF
KSTL 230520Z 2306/2412 VRB04KT P6SM FEW250
  FM231200 36008KT P6SM SKC
  FM240200 04004KT P6SM SKC


METAR Board
Radar Display
Forecast Discussion
For situational awareness. Not to be used for flight planning purposes.